^^
Station Historical Data
Daily Summary for December 5, 2017 Units:  Metric    English   Both
« Previous Day
Next Day »
Daily Weekly Monthly Yearly Custom
  High: Low: Average:
Temperature: 35.9 °C 16.9 °C 24.8 °C
Dew Point: 7.6 °C 2.1 °C 5.4 °C
Humidity: 48% 12% 32%
Wind Speed: 27.4km/h 0km/h 13.5km/h
Wind Gust: 33.8km/h - -
Wind- - SSW
Pressure: 1010.4 hPa 1003.6 hPa -
Precipitation: 0 mm    
Historical Graphs
 
 
Tabular Data for December 5, 2017
Time Temperature Dew Point Pressure Wind Wind Speed Wind Gust Humidity Rainfall Rate (Hourly) solar Conditions
00:07 21.1 °C 7 °C 1009.7 hPa SSW 25.9 km/h 27.4 km/h 40% 0 mm 0.0 W/m2
01:07 20.3 °C 7.3 °C 1010 hPa SSW 20.9 km/h 24.1 km/h 43% 0 mm 0.0 W/m2
01:12 20.3 °C 7.3 °C 1009.7 hPa SSW 20.9 km/h 27.4 km/h 43% 0 mm 0.0 W/m2
01:17 20.2 °C 7.6 °C 1010 hPa SSW 22.7 km/h 22.7 km/h 44% 0 mm 0.0 W/m2
01:27 20 °C 7.4 °C 1010 hPa SSW 17.7 km/h 20.9 km/h 44% 0 mm 0.0 W/m2
01:32 20 °C 7.4 °C 1010 hPa SSW 17.7 km/h 22.5 km/h 44% 0 mm 0.0 W/m2
01:37 19.9 °C 7.3 °C 1010 hPa SSW 20.9 km/h 22.5 km/h 44% 0 mm 0.0 W/m2
01:42 19.8 °C 7.2 °C 1010 hPa SSW 17.7 km/h 22.5 km/h 44% 0 mm 0.0 W/m2
01:47 19.6 °C 7 °C 1010 hPa SSW 20.9 km/h 24.1 km/h 44% 0 mm 0.0 W/m2
01:57 19.4 °C 7.2 °C 1010 hPa SSW 16.3 km/h 20.9 km/h 45% 0 mm 0.0 W/m2
02:07 19.2 °C 7.3 °C 1010 hPa SSW 22.7 km/h 24.1 km/h 46% 0 mm 0.0 W/m2
02:12 19 °C 7.1 °C 1010 hPa SSW 22.7 km/h 27.4 km/h 46% 0 mm 0.0 W/m2
02:17 18.9 °C 7 °C 1010 hPa SSW 20.9 km/h 25.7 km/h 46% 0 mm 0.0 W/m2
02:22 18.8 °C 6.9 °C 1010 hPa SSW 20.9 km/h 25.7 km/h 46% 0 mm 0.0 W/m2
02:32 18.7 °C 7.2 °C 1010 hPa SSW 24.1 km/h 27.4 km/h 47% 0 mm 0.0 W/m2
02:42 18.6 °C 7.1 °C 1010 hPa SSW 14.3 km/h 22.5 km/h 47% 0 mm 0.0 W/m2
02:52 18.5 °C 7 °C 1010 hPa SSW 16.3 km/h 25.7 km/h 47% 0 mm 0.0 W/m2
02:57 18.4 °C 6.9 °C 1010 hPa SSW 14.3 km/h 19.3 km/h 47% 0 mm 0.0 W/m2
03:02 18.3 °C 6.8 °C 1010 hPa SSW 19.5 km/h 20.9 km/h 47% 0 mm 0.0 W/m2
03:08 18.3 °C 6.8 °C 1010 hPa SSW 11.1 km/h 20.9 km/h 47% 0 mm 0.0 W/m2
03:18 18.2 °C 6.7 °C 1010 hPa SSW 16.3 km/h 19.3 km/h 47% 0 mm 0.0 W/m2
03:28 18.1 °C 6.9 °C 1010 hPa SSW 11.1 km/h 19.3 km/h 48% 0 mm 0.0 W/m2
03:38 18.1 °C 6.9 °C 1010 hPa SSW 16.3 km/h 16.3 km/h 48% 0 mm 0.0 W/m2
03:43 18.1 °C 6.9 °C 1010 hPa SSW 11.1 km/h 16.1 km/h 48% 0 mm 0.0 W/m2
03:53 17.9 °C 6.7 °C 1009.7 hPa SSW 14.3 km/h 16.1 km/h 48% 0 mm 0.0 W/m2
03:58 17.9 °C 6.4 °C 1010 hPa SSW 9.7 km/h 16.1 km/h 47% 0 mm 0.0 W/m2
04:03 17.8 °C 6.3 °C 1010 hPa SW 14.3 km/h 19.3 km/h 47% 0 mm 0.0 W/m2
04:08 17.9 °C 6.1 °C 1010 hPa SW 13 km/h 17.7 km/h 46% 0 mm 0.0 W/m2
04:13 18 °C 6.2 °C 1009.7 hPa SW 22.7 km/h 22.7 km/h 46% 0 mm 0.0 W/m2
04:23 17.9 °C 5.8 °C 1009.7 hPa SW 24.1 km/h 27.4 km/h 45% 0 mm 0.0 W/m2
04:33 17.8 °C 5.7 °C 1009.7 hPa SW 17.7 km/h 27.4 km/h 45% 0 mm 0.0 W/m2
04:38 17.7 °C 5.9 °C 1009.7 hPa SW 17.7 km/h 25.7 km/h 46% 0 mm 0.0 W/m2
04:48 17.6 °C 5.8 °C 1009.7 hPa SW 14.3 km/h 20.9 km/h 46% 0 mm 0.0 W/m2
04:53 17.5 °C 6.1 °C 1009.7 hPa SW 14.3 km/h 19.3 km/h 47% 0 mm 0.0 W/m2
04:58 17.4 °C 5.7 °C 1009.7 hPa SW 14.3 km/h 20.9 km/h 46% 0 mm 0.0 W/m2
05:03 17.4 °C 5.7 °C 1009.7 hPa SW 11.1 km/h 16.1 km/h 46% 0 mm 0.0 W/m2
05:08 17.3 °C 5.6 °C 1009.7 hPa SW 16.3 km/h 22.5 km/h 46% 0 mm 0.0 W/m2
05:18 17.3 °C 5.6 °C 1010 hPa SW 13 km/h 14.5 km/h 46% 0 mm 0.0 W/m2
05:23 17.2 °C 5.5 °C 1010 hPa SW 9.7 km/h 12.9 km/h 46% 0 mm 0.0 W/m2
05:28 17.2 °C 5.2 °C 1010 hPa SW 17.7 km/h 17.7 km/h 45% 0 mm 0.0 W/m2
05:38 17.1 °C 5.1 °C 1010 hPa SW 11.1 km/h 16.1 km/h 45% 0 mm 0.0 W/m2
05:43 17.1 °C 5.1 °C 1010 hPa SW 11.1 km/h 16.1 km/h 45% 0 mm 0.0 W/m2
05:48 17.1 °C 5.1 °C 1010 hPa SW 14.3 km/h 16.1 km/h 45% 0 mm 0.0 W/m2
05:59 16.9 °C 5.2 °C 1010 hPa SW 16.3 km/h 17.7 km/h 46% 0 mm 12.0 W/m2
06:04 17 °C 5.3 °C 1010 hPa SW 14.3 km/h 14.5 km/h 46% 0 mm 16.0 W/m2
06:09 17 °C 5.3 °C 1010 hPa SW 11.1 km/h 16.1 km/h 46% 0 mm 21.0 W/m2
06:19 17.1 °C 5.4 °C 1010 hPa SW 14.3 km/h 16.1 km/h 46% 0 mm 42.0 W/m2
06:24 17.2 °C 5.5 °C 1009.7 hPa SW 13 km/h 17.7 km/h 46% 0 mm 54.0 W/m2
06:34 17.4 °C 5.3 °C 1010 hPa SW 13 km/h 14.5 km/h 45% 0 mm 83.0 W/m2
06:39 17.6 °C 5.5 °C 1010 hPa SW 9.7 km/h 14.5 km/h 45% 0 mm 100.0 W/m2
06:49 17.9 °C 5.8 °C 1010 hPa SW 11.1 km/h 14.5 km/h 45% 0 mm 139.0 W/m2
06:54 18.1 °C 5.7 °C 1010 hPa SW 11.1 km/h 14.5 km/h 44% 0 mm 158.0 W/m2
06:59 18.2 °C 5.7 °C 1010 hPa SW 11.1 km/h 14.5 km/h 44% 0 mm 179.0 W/m2
07:04 18.3 °C 5.8 °C 1010 hPa SW 16.3 km/h 16.3 km/h 44% 0 mm 199.0 W/m2
07:15 18.7 °C 5.9 °C 1010 hPa SW 11.1 km/h 14.5 km/h 43% 0 mm 232.0 W/m2
07:21 18.8 °C 5.6 °C 1010 hPa SW 11.1 km/h 14.5 km/h 42% 0 mm 250.0 W/m2
07:33 19.3 °C 6.1 °C 1010 hPa SW 11.1 km/h 16.1 km/h 42% 0 mm 283.0 W/m2
07:44 19.8 °C 6.2 °C 1010 hPa SW 17.7 km/h 19.3 km/h 41% 0 mm 318.0 W/m2
07:53 20.2 °C 6.2 °C 1010.4 hPa SW 17.7 km/h 19.3 km/h 40% 0 mm 352.0 W/m2
08:04 20.5 °C 6.1 °C 1010.4 hPa SW 13 km/h 17.7 km/h 39% 0 mm 385.0 W/m2
08:17 20.8 °C 6 °C 1010.4 hPa SW 19.5 km/h 20.9 km/h 38% 0 mm 420.0 W/m2
08:55 22.2 °C 6 °C 1010 hPa SW 13 km/h 17.7 km/h 35% 0 mm 534.0 W/m2
10:04 25.5 °C 5.7 °C 1010 hPa SW 6.4 km/h 11.3 km/h 28% 0 mm 749.0 W/m2
10:14 25.9 °C 5.5 °C 1010 hPa SW 9.7 km/h 16.1 km/h 27% 0 mm 777.0 W/m2
10:35 26.8 °C 5.7 °C 1009.7 hPa Calm     26% 0 mm 824.0 W/m2
10:45 27.5 °C 5.7 °C 1009.7 hPa Calm     25% 0 mm 847.0 W/m2
10:54 28.1 °C 5.6 °C 1009.7 hPa SW 3.2 km/h 9.7 km/h 24% 0 mm 865.0 W/m2
11:04 28.5 °C 5.4 °C 1009.4 hPa SW 6.4 km/h 12.9 km/h 23% 0 mm 886.0 W/m2
11:17 29.1 °C 5.2 °C 1009.4 hPa SW 6.4 km/h 12.9 km/h 22% 0 mm 902.0 W/m2
11:33 29.8 °C 5.1 °C 1009 hPa SW 9.7 km/h 12.9 km/h 21% 0 mm 923.0 W/m2
11:49 30.6 °C 5.1 °C 1009 hPa SW 9.7 km/h 11.3 km/h 20% 0 mm 942.0 W/m2
12:20 31.8 °C 5.3 °C 1008.4 hPa SW 7.9 km/h 11.3 km/h 19% 0 mm 960.0 W/m2
12:41 32.7 °C 6.1 °C 1008.4 hPa WSW 4.7 km/h 16.1 km/h 19% 0 mm 988.0 W/m2
12:52 33.4 °C 5.8 °C 1008 hPa Calm   9.7 km/h 18% 0 mm 970.0 W/m2
13:13 33.8 °C 5.3 °C 1008 hPa NW 9.7 km/h 12.9 km/h 17% 0 mm 953.0 W/m2
13:33 33.7 °C 6.1 °C 1007.3 hPa Calm   11.3 km/h 18% 0 mm 940.0 W/m2
13:42 33.7 °C 6.1 °C 1007.3 hPa Calm   11.3 km/h 18% 0 mm 940.0 W/m2
13:53 34.3 °C 5.7 °C 1007 hPa NNE 1.4 km/h 6.4 km/h 17% 0 mm 925.0 W/m2
14:24 34.9 °C 5.4 °C 1006.3 hPa NE 1.4 km/h 3.2 km/h 16% 0 mm 872.0 W/m2
14:39 34.7 °C 5.2 °C 1006.3 hPa NNE 1.4 km/h 9.7 km/h 16% 0 mm 853.0 W/m2
14:54 35.4 °C 4.8 °C 1006 hPa Calm   8 km/h 15% 0 mm 816.0 W/m2
15:16 35.6 °C 4 °C 1005.6 hPa NNW 11.1 km/h 14.5 km/h 14% 0 mm 789.0 W/m2
15:30 35.7 °C 3 °C 1005.3 hPa NNW 14.3 km/h 17.7 km/h 13% 0 mm 744.0 W/m2
15:46 35.6 °C 2.9 °C 1005 hPa NNW 11.1 km/h 11.3 km/h 13% 0 mm 700.0 W/m2
16:02 35.8 °C 3.1 °C 1004.6 hPa NNW 20.9 km/h 20.9 km/h 13% 0 mm 661.0 W/m2
16:18 35.7 °C 3 °C 1004.3 hPa NW 17.7 km/h 20.9 km/h 13% 0 mm 619.0 W/m2
16:38 35.9 °C 2.1 °C 1004.3 hPa NW 1.4 km/h 12.9 km/h 12% 0 mm 555.0 W/m2
16:56 35.4 °C 2.8 °C 1003.9 hPa Calm   4.8 km/h 13% 0 mm 482.0 W/m2
17:09 35.9 °C 3.2 °C 1003.9 hPa Calm   11.3 km/h 13% 0 mm 436.0 W/m2
17:23 35.9 °C 3.2 °C 1003.6 hPa Calm     13% 0 mm 403.0 W/m2
17:46 35.6 °C 4 °C 1003.9 hPa SSW 25.9 km/h 29 km/h 14% 0 mm 295.0 W/m2
18:07 35.4 °C 3.8 °C 1003.9 hPa SW 16.3 km/h 16.3 km/h 14% 0 mm 244.0 W/m2
18:16 35.3 °C 2.7 °C 1003.9 hPa SSW 24.1 km/h 27.4 km/h 13% 0 mm 188.0 W/m2
18:33 35.1 °C 2.6 °C 1003.9 hPa South 17.7 km/h 25.7 km/h 13% 0 mm 148.0 W/m2
18:42 34.9 °C 2.4 °C 1003.9 hPa South 9.7 km/h 22.5 km/h 13% 0 mm 91.0 W/m2
19:03 34 °C 3.7 °C 1004.3 hPa SSE 25.9 km/h 25.9 km/h 15% 0 mm 46.0 W/m2
19:12 33.6 °C 3.4 °C 1004.6 hPa South 17.7 km/h 29 km/h 15% 0 mm 16.0 W/m2
19:31 33.2 °C 4 °C 1004.6 hPa SSE 27.4 km/h 33.8 km/h 16% 0 mm 7.0 W/m2
19:42 32.9 °C 3.8 °C 1005 hPa SSE 17.7 km/h 27.4 km/h 16% 0 mm 0.0 W/m2
19:52 32.5 °C 3.4 °C 1005 hPa South 20.9 km/h 25.7 km/h 16% 0 mm 0.0 W/m2
20:17 31.9 °C 3 °C 1005.3 hPa South 17.7 km/h 27.4 km/h 16% 0 mm 0.0 W/m2
20:31 31.8 °C 2.9 °C 1005.6 hPa South 14.3 km/h 24.1 km/h 16% 0 mm 0.0 W/m2
20:37 31.5 °C 2.6 °C 1005.6 hPa South 19.5 km/h 30.6 km/h 16% 0 mm 0.0 W/m2
20:41 31.5 °C 2.6 °C 1005.6 hPa South 19.5 km/h 30.6 km/h 16% 0 mm 0.0 W/m2
20:47 31.4 °C 3.4 °C 1006 hPa South 20.9 km/h 30.6 km/h 17% 0 mm 0.0 W/m2
20:54 31.4 °C 3.4 °C 1006 hPa South 20.9 km/h 30.6 km/h 17% 0 mm 0.0 W/m2
21:02 30.9 °C 5.3 °C 1006 hPa South 24.1 km/h 30.6 km/h 20% 0 mm 0.0 W/m2
21:22 30.4 °C 5.6 °C 1006.3 hPa South 17.7 km/h 22.5 km/h 21% 0 mm 0.0 W/m2
21:30 30 °C 6 °C 1006.7 hPa South 16.3 km/h 24.1 km/h 22% 0 mm 0.0 W/m2
21:40 29.7 °C 5.7 °C 1007 hPa South 11.1 km/h 19.3 km/h 22% 0 mm 0.0 W/m2
21:47 29.4 °C 6.1 °C 1007 hPa South 14.3 km/h 16.1 km/h 23% 0 mm 0.0 W/m2
21:57 29.1 °C 5.9 °C 1007.3 hPa South 13 km/h 16.1 km/h 23% 0 mm 0.0 W/m2
22:07 28.8 °C 6.2 °C 1007.7 hPa South 17.7 km/h 19.3 km/h 24% 0 mm 0.0 W/m2
22:24 28.7 °C 5.5 °C 1008 hPa SSW 13 km/h 20.9 km/h 23% 0 mm 0.0 W/m2
23:18 27 °C 6.9 °C 1009 hPa Calm     28% 0 mm 0.0 W/m2
23:25 26.8 °C 6.8 °C 1009 hPa Calm     28% 0 mm 0.0 W/m2
23:34 26.3 °C 6.8 °C 1008.7 hPa SSW 9.7 km/h 9.7 km/h 29% 0 mm 0.0 W/m2
Canyon Roadhouse, Fishriver Canyon, Namibia
Compliments of Weather Underground - 2.25 mb